Time;durP1;ratioP1;P1;durP2;ratioP2;P2;SDS_P1;SDS_P2;PMS_P1;PMS_P2;Temp;Humidity;BMP_temperature;BMP_pressure;BME280_temperature;BME280_humidity;BME280_pressure;Samples;Min_cycle;Max_cycle;Signal;HPM_P1;HPM_P2
2023/08/19 00:01:59;;;;;;;15.97;14.20;;;;;;;;;;758493;183;919049;-59
2023/08/19 00:04:23;;;;;;;16.40;13.70;;;;;;;;;;760265;182;918644;-64
2023/08/19 00:06:49;;;;;;;19.33;15.60;;;;;;;;;;754053;183;919989;-64
2023/08/19 00:09:15;;;;;;;21.73;14.10;;;;;;;;;;756965;183;919674;-60
2023/08/19 00:11:41;;;;;;;15.90;14.20;;;;;;;;;;754564;184;919095;-59
2023/08/19 00:14:06;;;;;;;20.02;14.43;;;;;;;;;;762874;183;919256;-60
2023/08/19 00:16:32;;;;;;;17.30;14.00;;;;;;;;;;745239;185;920507;-64
2023/08/19 00:18:58;;;;;;;16.57;13.70;;;;;;;;;;752019;184;920276;-63
2023/08/19 00:21:24;;;;;;;17.70;13.80;;;;;;;;;;751320;186;919454;-60
2023/08/19 00:23:50;;;;;;;26.83;14.90;;;;;;;;;;755727;183;881977;-65
2023/08/19 00:26:16;;;;;;;21.53;13.23;;;;;;;;;;741378;187;919132;-65
2023/08/19 00:28:41;;;;;;;455.87;28.67;;;;;;;;;;748520;187;918436;-64
2023/08/19 00:31:07;;;;;;;12.53;10.80;;;;;;;;;;754755;185;918806;-66
2023/08/19 00:33:33;;;;;;;376.70;25.57;;;;;;;;;;754706;182;920420;-64
2023/08/19 00:35:59;;;;;;;192.67;20.20;;;;;;;;;;756503;186;919315;-59
2023/08/19 00:38:25;;;;;;;13.80;12.40;;;;;;;;;;755265;183;920223;-63
2023/08/19 00:40:51;;;;;;;12.40;11.12;;;;;;;;;;754018;185;920217;-58
2023/08/19 00:43:17;;;;;;;16.57;13.60;;;;;;;;;;754153;185;919775;-60
2023/08/19 00:45:43;;;;;;;13.83;11.47;;;;;;;;;;753036;183;910548;-64
2023/08/19 00:48:09;;;;;;;14.95;13.35;;;;;;;;;;745756;183;912265;-60
2023/08/19 00:50:35;;;;;;;16.77;13.50;;;;;;;;;;754240;184;912156;-64
2023/08/19 00:53:01;;;;;;;17.00;13.73;;;;;;;;;;738962;189;888214;-64
2023/08/19 00:55:27;;;;;;;19.67;14.67;;;;;;;;;;753577;183;924997;-60
2023/08/19 00:57:53;;;;;;;21.17;13.70;;;;;;;;;;751031;186;923175;-65
2023/08/19 01:00:18;;;;;;;19.70;13.07;;;;;;;;;;741572;190;921734;-60
2023/08/19 01:02:44;;;;;;;17.47;13.67;;;;;;;;;;742396;188;923655;-61
2023/08/19 01:05:10;;;;;;;27.17;12.87;;;;;;;;;;754925;184;818693;-58
2023/08/19 01:07:38;;;;;;;21.40;15.30;;;;;;;;;;758382;181;917048;-60
2023/08/19 01:10:04;;;;;;;19.37;13.23;;;;;;;;;;754812;186;916350;-59
2023/08/19 01:12:32;;;;;;;14.50;12.23;;;;;;;;;;749758;186;916191;-66
2023/08/19 01:14:59;;;;;;;14.83;13.10;;;;;;;;;;749990;186;919905;-65
2023/08/19 01:17:25;;;;;;;21.40;15.10;;;;;;;;;;756464;186;918431;-60
2023/08/19 01:19:50;;;;;;;16.57;13.93;;;;;;;;;;749777;186;941359;-65
2023/08/19 01:22:16;;;;;;;13.97;12.47;;;;;;;;;;751349;186;919312;-65
2023/08/19 01:24:42;;;;;;;21.80;14.77;;;;;;;;;;752433;186;919825;-61
2023/08/19 01:27:23;;;;;;;16.33;14.00;;;;;;;;;;756683;184;918639;-66
2023/08/19 01:29:49;;;;;;;15.23;13.63;;;;;;;;;;753371;186;912857;-59
2023/08/19 01:32:14;;;;;;;15.17;12.40;;;;;;;;;;751131;184;915859;-60
2023/08/19 01:34:40;;;;;;;13.80;12.43;;;;;;;;;;752756;186;938466;-60
2023/08/19 01:37:07;;;;;;;14.13;11.90;;;;;;;;;;760026;185;714672;-64
2023/08/19 01:39:32;;;;;;;20.57;13.47;;;;;;;;;;753285;186;917774;-60
2023/08/19 01:41:58;;;;;;;17.33;12.83;;;;;;;;;;750977;186;922076;-60
2023/08/19 01:44:24;;;;;;;13.43;12.13;;;;;;;;;;755496;184;918590;-64
2023/08/19 01:46:49;;;;;;;19.73;12.80;;;;;;;;;;751008;186;919149;-64
2023/08/19 01:49:15;;;;;;;16.80;13.97;;;;;;;;;;750089;186;920970;-64
2023/08/19 01:51:41;;;;;;;19.80;13.57;;;;;;;;;;756179;186;918331;-64
2023/08/19 01:54:07;;;;;;;15.10;12.47;;;;;;;;;;751065;186;919127;-64
2023/08/19 01:56:33;;;;;;;13.73;12.33;;;;;;;;;;751095;186;919863;-60
2023/08/19 01:58:59;;;;;;;19.80;11.37;;;;;;;;;;754730;185;817910;-60
2023/08/19 02:01:25;;;;;;;16.20;11.50;;;;;;;;;;754646;183;919353;-61
2023/08/19 02:03:51;;;;;;;13.60;11.40;;;;;;;;;;747056;185;816576;-60
2023/08/19 02:06:16;;;;;;;12.27;10.97;;;;;;;;;;758263;183;851534;-64
2023/08/19 02:08:42;;;;;;;12.43;10.80;;;;;;;;;;757265;185;919094;-60
2023/08/19 02:11:08;;;;;;;17.00;11.27;;;;;;;;;;754119;184;932728;-60
2023/08/19 02:13:34;;;;;;;17.73;12.27;;;;;;;;;;760044;182;816377;-59
2023/08/19 02:16:00;;;;;;;15.40;12.73;;;;;;;;;;762709;182;918793;-59
2023/08/19 02:18:26;;;;;;;12.43;11.23;;;;;;;;;;752888;183;823701;-60
2023/08/19 02:20:51;;;;;;;15.13;11.25;;;;;;;;;;752535;181;919378;-60
2023/08/19 02:23:17;;;;;;;16.50;12.07;;;;;;;;;;756636;183;928301;-60
2023/08/19 02:25:43;;;;;;;13.13;11.73;;;;;;;;;;758308;184;916847;-59
2023/08/19 02:28:09;;;;;;;17.20;13.40;;;;;;;;;;754737;182;915420;-60
2023/08/19 02:30:35;;;;;;;18.03;14.03;;;;;;;;;;755956;183;919298;-64
2023/08/19 02:33:05;;;;;;;18.08;13.13;;;;;;;;;;759372;182;918089;-65
2023/08/19 02:35:31;;;;;;;14.37;12.87;;;;;;;;;;756537;183;816737;-64
2023/08/19 02:37:56;;;;;;;14.47;12.87;;;;;;;;;;750803;183;916880;-63
2023/08/19 02:40:23;;;;;;;21.17;12.80;;;;;;;;;;754300;184;907039;-60
2023/08/19 02:42:48;;;;;;;17.23;14.57;;;;;;;;;;762519;183;919480;-60
2023/08/19 02:45:14;;;;;;;15.50;12.37;;;;;;;;;;760676;183;920915;-63
2023/08/19 02:47:40;;;;;;;16.93;13.50;;;;;;;;;;757594;184;920485;-63
2023/08/19 02:50:06;;;;;;;13.77;10.30;;;;;;;;;;764785;184;822468;-58
2023/08/19 02:52:32;;;;;;;20.70;12.13;;;;;;;;;;760651;184;919518;-59
2023/08/19 02:54:58;;;;;;;16.67;10.87;;;;;;;;;;746034;184;919269;-59
2023/08/19 02:57:24;;;;;;;17.33;12.17;;;;;;;;;;763571;184;919337;-63
2023/08/19 02:59:50;;;;;;;14.87;12.03;;;;;;;;;;751353;186;919423;-64
2023/08/19 03:02:16;;;;;;;20.83;11.70;;;;;;;;;;755693;184;919570;-59
2023/08/19 03:04:41;;;;;;;15.03;12.10;;;;;;;;;;763362;184;919147;-58
2023/08/19 03:07:07;;;;;;;14.53;11.77;;;;;;;;;;756660;184;919851;-64
2023/08/19 03:09:33;;;;;;;13.10;10.70;;;;;;;;;;758466;184;918272;-60
2023/08/19 03:11:59;;;;;;;14.40;12.60;;;;;;;;;;757665;184;919252;-60
2023/08/19 03:14:25;;;;;;;13.83;11.20;;;;;;;;;;759882;184;919424;-59
2023/08/19 03:16:51;;;;;;;12.90;10.30;;;;;;;;;;745197;186;919229;-65
2023/08/19 03:19:16;;;;;;;11.87;10.70;;;;;;;;;;755211;184;918252;-65
2023/08/19 03:21:42;;;;;;;11.63;10.43;;;;;;;;;;753526;184;919401;-58
2023/08/19 03:24:08;;;;;;;11.67;10.43;;;;;;;;;;754609;185;917486;-63
2023/08/19 03:26:34;;;;;;;11.40;10.30;;;;;;;;;;754586;184;918941;-60
2023/08/19 03:29:00;;;;;;;14.77;11.30;;;;;;;;;;763208;184;919227;-59
2023/08/19 03:31:26;;;;;;;13.37;11.27;;;;;;;;;;754689;184;923006;-63
2023/08/19 03:33:51;;;;;;;20.53;12.60;;;;;;;;;;754175;185;913985;-60
2023/08/19 03:36:17;;;;;;;14.10;10.37;;;;;;;;;;751680;184;920564;-60
2023/08/19 03:38:43;;;;;;;11.50;8.87;;;;;;;;;;755222;185;916775;-63
2023/08/19 03:41:09;;;;;;;13.87;10.13;;;;;;;;;;748457;186;919239;-60
2023/08/19 03:43:35;;;;;;;16.37;11.70;;;;;;;;;;738556;188;919047;-64
2023/08/19 03:46:01;;;;;;;15.40;11.10;;;;;;;;;;752044;186;918476;-59
2023/08/19 03:48:26;;;;;;;12.83;11.50;;;;;;;;;;757702;183;921069;-63
2023/08/19 03:50:52;;;;;;;14.27;10.87;;;;;;;;;;748181;187;818940;-65
2023/08/19 03:53:18;;;;;;;11.93;10.63;;;;;;;;;;739491;188;810499;-63
2023/08/19 03:55:44;;;;;;;15.17;11.13;;;;;;;;;;740969;186;911476;-63
2023/08/19 03:58:10;;;;;;;62.70;13.37;;;;;;;;;;755757;184;914156;-64
2023/08/19 04:00:37;;;;;;;17.33;10.50;;;;;;;;;;762862;184;915843;-63
2023/08/19 04:03:01;;;;;;;12.30;9.90;;;;;;;;;;761913;184;914697;-60
2023/08/19 04:05:27;;;;;;;13.80;12.17;;;;;;;;;;755743;184;917598;-63
2023/08/19 04:07:53;;;;;;;14.53;10.93;;;;;;;;;;758589;183;857259;-59
2023/08/19 04:10:19;;;;;;;15.80;12.10;;;;;;;;;;761356;181;918696;-63
2023/08/19 04:12:45;;;;;;;16.43;11.20;;;;;;;;;;757331;183;918631;-63
2023/08/19 04:15:11;;;;;;;13.03;11.60;;;;;;;;;;754764;184;919410;-64
2023/08/19 04:17:37;;;;;;;13.77;11.80;;;;;;;;;;758748;184;918348;-65
2023/08/19 04:20:08;;;;;;;14.80;12.23;;;;;;;;;;755346;184;919571;-59
2023/08/19 04:22:30;;;;;;;15.43;11.68;;;;;;;;;;757196;181;922748;-64
2023/08/19 04:24:55;;;;;;;16.00;14.40;;;;;;;;;;763423;184;914133;-60
2023/08/19 04:27:23;;;;;;;18.23;13.17;;;;;;;;;;761050;183;919574;-58
2023/08/19 04:29:48;;;;;;;19.07;13.57;;;;;;;;;;761439;183;920378;-60
2023/08/19 04:32:13;;;;;;;12.97;10.07;;;;;;;;;;753506;184;915306;-60
2023/08/19 04:34:39;;;;;;;19.17;11.10;;;;;;;;;;762640;183;813113;-64
2023/08/19 04:37:06;;;;;;;12.70;10.80;;;;;;;;;;745578;186;918358;-62
2023/08/19 04:39:31;;;;;;;12.00;10.60;;;;;;;;;;752609;185;919305;-63
2023/08/19 04:41:57;;;;;;;14.40;12.00;;;;;;;;;;753876;187;925848;-60
2023/08/19 04:44:23;;;;;;;14.17;10.63;;;;;;;;;;753607;186;816716;-58
2023/08/19 04:46:49;;;;;;;15.27;11.57;;;;;;;;;;750146;186;918459;-64
2023/08/19 04:49:14;;;;;;;12.80;11.50;;;;;;;;;;753714;186;817091;-64
2023/08/19 04:51:40;;;;;;;15.33;13.10;;;;;;;;;;750061;185;919491;-65
2023/08/19 04:54:07;;;;;;;18.37;13.23;;;;;;;;;;749283;184;917346;-59
2023/08/19 04:56:32;;;;;;;15.83;12.30;;;;;;;;;;745266;186;921801;-60
2023/08/19 04:59:00;;;;;;;15.20;11.33;;;;;;;;;;756612;186;917334;-59
2023/08/19 05:01:25;;;;;;;21.13;12.70;;;;;;;;;;746857;185;919407;-60
2023/08/19 05:03:51;;;;;;;15.17;11.97;;;;;;;;;;738090;189;920142;-64
2023/08/19 05:06:17;;;;;;;19.13;13.03;;;;;;;;;;755607;185;949978;-65
2023/08/19 05:08:43;;;;;;;19.50;12.43;;;;;;;;;;750169;184;920298;-64
2023/08/19 05:11:09;;;;;;;14.20;12.70;;;;;;;;;;755066;183;919512;-64
2023/08/19 05:13:35;;;;;;;16.27;14.57;;;;;;;;;;756913;186;1021852;-64
2023/08/19 05:16:00;;;;;;;17.57;14.27;;;;;;;;;;754537;186;919040;-60
2023/08/19 05:18:26;;;;;;;17.80;15.90;;;;;;;;;;754904;186;829964;-64
2023/08/19 05:20:52;;;;;;;16.50;14.17;;;;;;;;;;750791;186;914873;-64
2023/08/19 05:23:18;;;;;;;17.80;15.90;;;;;;;;;;756013;184;919458;-64
2023/08/19 05:25:44;;;;;;;19.20;15.23;;;;;;;;;;755020;186;917654;-61
2023/08/19 05:28:10;;;;;;;16.33;14.73;;;;;;;;;;752727;186;817137;-61
2023/08/19 05:30:36;;;;;;;16.10;13.90;;;;;;;;;;756079;186;918300;-60
2023/08/19 05:33:01;;;;;;;14.53;13.13;;;;;;;;;;749243;186;915511;-60
2023/08/19 05:35:27;;;;;;;15.20;13.70;;;;;;;;;;752279;186;1021244;-59
2023/08/19 05:37:53;;;;;;;16.20;13.73;;;;;;;;;;754984;187;919578;-66
2023/08/19 05:40:19;;;;;;;14.83;12.67;;;;;;;;;;750498;187;918766;-64
2023/08/19 05:42:45;;;;;;;17.23;14.30;;;;;;;;;;753140;186;918019;-64
2023/08/19 05:45:11;;;;;;;17.53;12.50;;;;;;;;;;759094;186;863908;-65
2023/08/19 05:47:37;;;;;;;15.73;13.60;;;;;;;;;;747607;186;919126;-64
2023/08/19 05:50:03;;;;;;;15.73;12.43;;;;;;;;;;748870;187;919292;-60
2023/08/19 05:52:29;;;;;;;16.02;11.63;;;;;;;;;;749144;187;918534;-60
2023/08/19 05:54:55;;;;;;;14.73;12.13;;;;;;;;;;754880;187;919357;-64
2023/08/19 05:57:20;;;;;;;13.17;11.77;;;;;;;;;;749002;186;919695;-64
2023/08/19 05:59:46;;;;;;;13.13;11.80;;;;;;;;;;751772;186;817825;-61
2023/08/19 06:02:12;;;;;;;12.37;11.20;;;;;;;;;;757133;186;919076;-65
2023/08/19 06:04:38;;;;;;;14.27;12.77;;;;;;;;;;753251;187;817911;-64
2023/08/19 06:07:04;;;;;;;12.77;10.87;;;;;;;;;;751178;187;919332;-64
2023/08/19 06:09:30;;;;;;;14.83;11.60;;;;;;;;;;757850;186;919125;-64
2023/08/19 06:11:55;;;;;;;16.30;11.90;;;;;;;;;;752163;186;915571;-64
2023/08/19 06:14:21;;;;;;;15.33;10.70;;;;;;;;;;751191;186;816580;-60
2023/08/19 06:16:47;;;;;;;12.87;11.00;;;;;;;;;;747024;186;918504;-64
2023/08/19 06:19:13;;;;;;;11.63;10.50;;;;;;;;;;758324;185;914866;-65
2023/08/19 06:21:39;;;;;;;14.93;11.50;;;;;;;;;;754411;185;942778;-64
2023/08/19 06:24:05;;;;;;;11.35;10.15;;;;;;;;;;753074;185;922314;-65
2023/08/19 06:26:31;;;;;;;12.00;10.87;;;;;;;;;;760187;186;919229;-66
2023/08/19 06:28:57;;;;;;;11.73;10.50;;;;;;;;;;754481;186;918979;-65
2023/08/19 06:31:23;;;;;;;13.53;11.17;;;;;;;;;;753959;186;918790;-61
2023/08/19 06:33:49;;;;;;;12.37;9.90;;;;;;;;;;755348;186;919993;-61
2023/08/19 06:36:15;;;;;;;12.00;10.80;;;;;;;;;;754587;186;919538;-59
2023/08/19 06:38:41;;;;;;;15.33;10.20;;;;;;;;;;750960;186;920424;-65
2023/08/19 06:41:09;;;;;;;11.00;10.00;;;;;;;;;;752399;186;921996;-61
2023/08/19 06:43:33;;;;;;;10.60;9.47;;;;;;;;;;754614;186;817694;-61
2023/08/19 06:45:59;;;;;;;12.27;9.97;;;;;;;;;;744737;185;921581;-64
2023/08/19 06:48:26;;;;;;;14.40;10.13;;;;;;;;;;748726;186;942535;-61
2023/08/19 06:50:52;;;;;;;14.23;9.60;;;;;;;;;;752448;187;919672;-65
2023/08/19 06:53:18;;;;;;;11.80;10.60;;;;;;;;;;745368;185;921445;-65
2023/08/19 06:55:44;;;;;;;15.30;10.43;;;;;;;;;;753947;183;917830;-60
2023/08/19 06:58:09;;;;;;;14.10;9.40;;;;;;;;;;749036;186;918565;-60
2023/08/19 07:00:35;;;;;;;12.30;10.57;;;;;;;;;;747582;185;919335;-60
2023/08/19 07:03:01;;;;;;;21.80;10.57;;;;;;;;;;754237;185;920952;-65
2023/08/19 07:05:27;;;;;;;11.30;9.50;;;;;;;;;;757076;184;923304;-65
2023/08/19 07:07:53;;;;;;;13.10;10.07;;;;;;;;;;750837;186;919332;-61
2023/08/19 07:10:19;;;;;;;13.00;9.83;;;;;;;;;;750922;183;908705;-66
2023/08/19 07:12:45;;;;;;;12.07;9.97;;;;;;;;;;740078;188;913812;-66
2023/08/19 07:15:12;;;;;;;11.00;8.93;;;;;;;;;;763630;183;845721;-59
2023/08/19 07:17:38;;;;;;;11.30;9.50;;;;;;;;;;752275;184;919006;-65
2023/08/19 07:20:05;;;;;;;13.57;8.60;;;;;;;;;;751269;184;914860;-66
2023/08/19 07:22:30;;;;;;;12.30;9.50;;;;;;;;;;749667;187;613733;-60
2023/08/19 07:24:56;;;;;;;9.20;8.40;;;;;;;;;;744340;188;619042;-60
2023/08/19 07:27:22;;;;;;;12.03;9.40;;;;;;;;;;752546;186;634491;-61
2023/08/19 07:29:51;;;;;;;11.50;9.23;;;;;;;;;;751862;187;631612;-61
2023/08/19 07:32:14;;;;;;;11.30;9.97;;;;;;;;;;755229;184;616774;-67
2023/08/19 07:34:39;;;;;;;12.30;8.97;;;;;;;;;;763639;183;621533;-67
2023/08/19 07:37:06;;;;;;;9.23;8.33;;;;;;;;;;758576;183;916407;-61
2023/08/19 07:39:31;;;;;;;8.43;7.63;;;;;;;;;;762613;184;812555;-61
2023/08/19 07:41:57;;;;;;;13.53;9.20;;;;;;;;;;741616;188;919187;-61
2023/08/19 07:44:23;;;;;;;11.00;8.97;;;;;;;;;;734252;189;917567;-59
2023/08/19 07:46:49;;;;;;;10.13;8.60;;;;;;;;;;741852;190;918232;-60
2023/08/19 07:49:14;;;;;;;10.23;9.17;;;;;;;;;;755664;183;816595;-61
2023/08/19 07:51:40;;;;;;;12.80;8.67;;;;;;;;;;748300;184;919712;-65
2023/08/19 07:54:06;;;;;;;12.23;10.30;;;;;;;;;;735056;189;919360;-65
2023/08/19 07:56:32;;;;;;;9.53;8.60;;;;;;;;;;742115;189;917908;-59
2023/08/19 07:58:58;;;;;;;9.50;8.17;;;;;;;;;;749126;187;629253;-65
2023/08/19 08:01:24;;;;;;;11.00;8.52;;;;;;;;;;757590;185;909574;-60
2023/08/19 08:03:50;;;;;;;10.30;8.00;;;;;;;;;;753307;185;917906;-67
2023/08/19 08:06:15;;;;;;;8.77;7.87;;;;;;;;;;758718;184;919372;-60
2023/08/19 08:08:41;;;;;;;8.67;7.77;;;;;;;;;;761473;184;631136;-60
2023/08/19 08:11:07;;;;;;;10.27;8.87;;;;;;;;;;765043;184;626497;-61
2023/08/19 08:13:33;;;;;;;9.73;8.73;;;;;;;;;;760127;184;628702;-66
2023/08/19 08:15:59;;;;;;;8.70;7.80;;;;;;;;;;755673;185;861631;-61
2023/08/19 08:18:25;;;;;;;9.37;8.40;;;;;;;;;;763079;184;916136;-61
2023/08/19 08:20:50;;;;;;;10.70;8.80;;;;;;;;;;756786;184;912197;-67
2023/08/19 08:23:16;;;;;;;10.13;9.10;;;;;;;;;;765318;184;721798;-65
2023/08/19 08:25:42;;;;;;;9.13;8.33;;;;;;;;;;757564;184;919428;-61
2023/08/19 08:28:08;;;;;;;11.20;9.50;;;;;;;;;;762340;184;813691;-65
2023/08/19 08:30:34;;;;;;;10.70;9.60;;;;;;;;;;747341;184;914331;-66
2023/08/19 08:33:00;;;;;;;11.50;8.80;;;;;;;;;;759495;184;917935;-66
2023/08/19 08:35:25;;;;;;;9.00;7.80;;;;;;;;;;758612;183;921817;-65
2023/08/19 08:37:51;;;;;;;10.10;8.90;;;;;;;;;;756509;184;922092;-60
2023/08/19 08:40:17;;;;;;;10.20;8.50;;;;;;;;;;754921;184;921939;-59
2023/08/19 08:42:43;;;;;;;9.73;8.47;;;;;;;;;;760948;183;916763;-59
2023/08/19 08:45:09;;;;;;;10.73;8.73;;;;;;;;;;763328;184;814476;-66
2023/08/19 08:47:35;;;;;;;12.77;8.43;;;;;;;;;;756935;184;916592;-66
2023/08/19 08:50:01;;;;;;;10.07;8.90;;;;;;;;;;753873;184;921041;-65
2023/08/19 08:52:27;;;;;;;10.00;9.00;;;;;;;;;;762656;184;919331;-60
2023/08/19 08:54:53;;;;;;;10.80;9.77;;;;;;;;;;758946;184;863695;-67
2023/08/19 08:57:19;;;;;;;11.20;8.47;;;;;;;;;;753391;183;919964;-61
2023/08/19 08:59:44;;;;;;;8.00;7.20;;;;;;;;;;759652;184;914900;-61
2023/08/19 09:02:11;;;;;;;14.17;8.10;;;;;;;;;;757868;184;918872;-66
2023/08/19 09:04:36;;;;;;;8.88;8.05;;;;;;;;;;754289;183;920827;-60
2023/08/19 09:07:05;;;;;;;19.10;9.27;;;;;;;;;;759070;185;918246;-67
2023/08/19 09:09:30;;;;;;;10.03;9.13;;;;;;;;;;759282;182;919039;-68
2023/08/19 09:11:56;;;;;;;10.50;9.40;;;;;;;;;;756636;184;920250;-67
2023/08/19 09:14:23;;;;;;;9.83;8.83;;;;;;;;;;750329;184;918570;-61
2023/08/19 09:16:49;;;;;;;9.27;8.30;;;;;;;;;;758635;181;913575;-60
2023/08/19 09:19:15;;;;;;;10.20;9.20;;;;;;;;;;755790;184;922318;-60
2023/08/19 09:21:41;;;;;;;12.00;10.80;;;;;;;;;;754566;183;914394;-61
2023/08/19 09:24:07;;;;;;;9.53;8.60;;;;;;;;;;757586;184;914344;-68
2023/08/19 09:26:32;;;;;;;10.90;9.80;;;;;;;;;;756224;184;944035;-62
2023/08/19 09:28:58;;;;;;;9.40;8.50;;;;;;;;;;758833;184;820049;-61
2023/08/19 09:31:24;;;;;;;9.50;8.60;;;;;;;;;;760720;182;811051;-61
2023/08/19 09:33:50;;;;;;;9.13;8.23;;;;;;;;;;754824;183;918877;-60
2023/08/19 09:36:16;;;;;;;9.57;8.47;;;;;;;;;;756747;184;869336;-61
2023/08/19 09:38:42;;;;;;;9.80;7.93;;;;;;;;;;758026;184;921711;-62
2023/08/19 09:41:08;;;;;;;10.67;9.73;;;;;;;;;;760992;184;921062;-68
2023/08/19 09:43:33;;;;;;;12.60;8.70;;;;;;;;;;757819;184;921923;-67
2023/08/19 09:46:00;;;;;;;12.20;9.53;;;;;;;;;;754715;184;919405;-67
2023/08/19 09:48:25;;;;;;;10.23;8.67;;;;;;;;;;761894;184;918878;-61
2023/08/19 09:50:51;;;;;;;9.90;8.90;;;;;;;;;;757162;184;881105;-67
2023/08/19 09:53:17;;;;;;;11.70;8.50;;;;;;;;;;761652;183;906910;-66
2023/08/19 09:55:45;;;;;;;17.03;10.70;;;;;;;;;;764628;184;905915;-60
2023/08/19 09:58:10;;;;;;;16.53;8.70;;;;;;;;;;750995;184;922944;-61
2023/08/19 10:00:36;;;;;;;13.62;10.00;;;;;;;;;;755225;183;919053;-61
2023/08/19 10:03:02;;;;;;;11.10;8.10;;;;;;;;;;757822;184;920151;-67
2023/08/19 10:05:28;;;;;;;12.70;10.03;;;;;;;;;;762494;183;920181;-59
2023/08/19 10:07:54;;;;;;;105.20;36.77;;;;;;;;;;740023;186;912699;-66
2023/08/19 10:10:20;;;;;;;28.07;14.23;;;;;;;;;;753997;183;918695;-61
2023/08/19 10:12:45;;;;;;;11.10;8.63;;;;;;;;;;751119;183;918904;-61
2023/08/19 10:15:11;;;;;;;9.17;8.27;;;;;;;;;;748809;186;919051;-59
2023/08/19 10:17:39;;;;;;;8.83;8.00;;;;;;;;;;758149;183;816725;-61
2023/08/19 10:20:05;;;;;;;10.57;9.53;;;;;;;;;;753683;185;918970;-61
2023/08/19 10:22:29;;;;;;;10.90;8.87;;;;;;;;;;757188;184;881044;-61
2023/08/19 10:24:57;;;;;;;9.93;8.90;;;;;;;;;;755269;183;914470;-61
2023/08/19 10:27:22;;;;;;;8.40;7.57;;;;;;;;;;753390;183;1042582;-65
2023/08/19 10:29:48;;;;;;;9.87;6.93;;;;;;;;;;757021;183;919066;-67
2023/08/19 10:32:19;;;;;;;11.30;8.00;;;;;;;;;;754071;184;922145;-61
2023/08/19 10:34:46;;;;;;;8.90;7.43;;;;;;;;;;750891;183;919036;-68
2023/08/19 10:37:12;;;;;;;8.43;7.63;;;;;;;;;;753256;184;918172;-67
2023/08/19 10:39:37;;;;;;;8.13;7.33;;;;;;;;;;759200;183;918907;-60
2023/08/19 10:42:03;;;;;;;8.73;7.83;;;;;;;;;;756718;181;921311;-68
2023/08/19 10:44:31;;;;;;;10.27;8.30;;;;;;;;;;757697;183;920155;-61
2023/08/19 10:46:55;;;;;;;9.80;7.67;;;;;;;;;;758333;184;920702;-61
2023/08/19 10:49:22;;;;;;;10.37;7.20;;;;;;;;;;745156;186;919175;-67
2023/08/19 10:51:51;;;;;;;9.60;8.70;;;;;;;;;;753392;184;919422;-66
2023/08/19 10:54:16;;;;;;;8.50;7.60;;;;;;;;;;744389;189;834953;-66
2023/08/19 10:56:42;;;;;;;7.77;7.07;;;;;;;;;;750751;186;919454;-66
2023/08/19 10:59:08;;;;;;;9.63;7.77;;;;;;;;;;757298;186;627825;-67
2023/08/19 11:01:34;;;;;;;8.73;7.90;;;;;;;;;;744227;190;618092;-67
2023/08/19 11:04:00;;;;;;;8.03;7.20;;;;;;;;;;760289;184;616989;-61
2023/08/19 11:06:27;;;;;;;9.43;8.43;;;;;;;;;;743951;186;630825;-67
2023/08/19 11:08:53;;;;;;;8.40;7.70;;;;;;;;;;756194;185;809513;-67
2023/08/19 11:11:19;;;;;;;9.13;8.23;;;;;;;;;;742803;189;912934;-59
2023/08/19 11:13:45;;;;;;;14.47;8.00;;;;;;;;;;746489;183;911149;-60
2023/08/19 11:16:11;;;;;;;9.73;7.87;;;;;;;;;;753470;184;911167;-68
2023/08/19 11:18:39;;;;;;;8.43;7.73;;;;;;;;;;743396;189;918189;-61
2023/08/19 11:21:05;;;;;;;11.40;7.73;;;;;;;;;;756029;186;618071;-60
2023/08/19 11:23:30;;;;;;;8.97;8.00;;;;;;;;;;755980;186;629204;-61
2023/08/19 11:25:57;;;;;;;8.60;7.47;;;;;;;;;;746323;188;619231;-60
2023/08/19 11:28:22;;;;;;;9.53;7.60;;;;;;;;;;743459;188;642350;-59
2023/08/19 11:30:48;;;;;;;9.20;7.77;;;;;;;;;;748206;188;629178;-60
2023/08/19 11:33:16;;;;;;;11.00;8.27;;;;;;;;;;746459;188;632856;-63
2023/08/19 11:35:40;;;;;;;8.30;7.40;;;;;;;;;;755041;183;611143;-60
2023/08/19 11:38:06;;;;;;;8.70;7.27;;;;;;;;;;745690;187;816850;-60
2023/08/19 11:40:32;;;;;;;10.27;7.47;;;;;;;;;;745381;186;918752;-60
2023/08/19 11:43:04;;;;;;;8.73;7.90;;;;;;;;;;753385;183;921185;-60
2023/08/19 11:45:33;;;;;;;8.80;7.97;;;;;;;;;;755872;185;880128;-60
2023/08/19 11:47:59;;;;;;;8.07;7.30;;;;;;;;;;751476;186;921630;-60
2023/08/19 11:50:27;;;;;;;11.00;6.83;;;;;;;;;;751793;186;920605;-60
2023/08/19 11:52:51;;;;;;;10.10;7.60;;;;;;;;;;753751;184;823538;-60
2023/08/19 11:55:17;;;;;;;10.63;8.00;;;;;;;;;;753464;186;814557;-61
2023/08/19 11:57:43;;;;;;;8.33;7.53;;;;;;;;;;750300;184;916511;-67
2023/08/19 12:00:09;;;;;;;9.37;7.50;;;;;;;;;;759638;186;816913;-65
2023/08/19 12:02:35;;;;;;;11.50;7.83;;;;;;;;;;755691;185;902866;-66
2023/08/19 12:05:02;;;;;;;8.40;6.93;;;;;;;;;;746511;185;916366;-64
2023/08/19 12:07:27;;;;;;;8.70;6.90;;;;;;;;;;753927;186;910859;-66
2023/08/19 12:09:53;;;;;;;9.63;7.00;;;;;;;;;;760631;183;920484;-60
2023/08/19 12:12:19;;;;;;;7.50;6.80;;;;;;;;;;748102;186;920498;-60
2023/08/19 12:14:45;;;;;;;8.30;7.50;;;;;;;;;;754173;185;920770;-61
2023/08/19 12:17:12;;;;;;;8.43;7.63;;;;;;;;;;755070;185;912591;-60
2023/08/19 12:19:36;;;;;;;9.37;7.80;;;;;;;;;;742199;189;813847;-61
2023/08/19 12:22:03;;;;;;;8.60;7.70;;;;;;;;;;741394;188;914433;-60
2023/08/19 12:24:28;;;;;;;7.87;7.07;;;;;;;;;;768168;183;915221;-65
2023/08/19 12:26:54;;;;;;;8.43;7.63;;;;;;;;;;756034;185;914809;-66
2023/08/19 12:29:20;;;;;;;9.07;7.40;;;;;;;;;;753943;186;923799;-60
2023/08/19 12:31:46;;;;;;;10.63;7.50;;;;;;;;;;734275;190;919003;-61
2023/08/19 12:34:11;;;;;;;8.23;7.43;;;;;;;;;;742232;187;816910;-60
2023/08/19 12:36:37;;;;;;;9.40;7.90;;;;;;;;;;751222;185;824074;-60
2023/08/19 12:39:04;;;;;;;8.67;7.80;;;;;;;;;;741677;188;921828;-65
2023/08/19 12:41:30;;;;;;;8.47;7.60;;;;;;;;;;752624;186;919982;-66
2023/08/19 12:43:55;;;;;;;9.30;7.63;;;;;;;;;;744695;185;917260;-60
2023/08/19 12:46:21;;;;;;;8.00;7.20;;;;;;;;;;747699;184;915571;-60
2023/08/19 12:48:47;;;;;;;11.03;7.87;;;;;;;;;;735630;190;921741;-60
2023/08/19 12:51:13;;;;;;;14.93;8.27;;;;;;;;;;739949;188;913386;-60
2023/08/19 12:53:38;;;;;;;9.83;8.10;;;;;;;;;;737760;187;919557;-60
2023/08/19 12:56:04;;;;;;;7.93;7.23;;;;;;;;;;742768;188;919882;-65
2023/08/19 12:58:30;;;;;;;8.70;7.90;;;;;;;;;;735807;188;919706;-59
2023/08/19 13:00:56;;;;;;;8.30;7.50;;;;;;;;;;747632;186;931178;-59
2023/08/19 13:03:22;;;;;;;7.83;7.00;;;;;;;;;;757343;184;921520;-60
2023/08/19 13:05:48;;;;;;;8.07;7.37;;;;;;;;;;758802;184;816564;-62
2023/08/19 13:08:13;;;;;;;7.27;6.57;;;;;;;;;;753748;182;917416;-60
2023/08/19 13:10:39;;;;;;;10.70;8.07;;;;;;;;;;754625;185;817287;-60
2023/08/19 13:13:06;;;;;;;8.23;7.00;;;;;;;;;;741901;189;918699;-61
2023/08/19 13:15:32;;;;;;;7.73;7.00;;;;;;;;;;753891;185;919391;-60
2023/08/19 13:17:58;;;;;;;8.03;6.60;;;;;;;;;;750046;186;625333;-65
2023/08/19 13:20:25;;;;;;;7.60;6.73;;;;;;;;;;751680;188;628518;-66
2023/08/19 13:22:49;;;;;;;9.07;7.03;;;;;;;;;;752990;185;918607;-65
2023/08/19 13:25:15;;;;;;;7.43;6.73;;;;;;;;;;750316;185;909605;-65
2023/08/19 13:27:41;;;;;;;7.57;6.87;;;;;;;;;;753733;184;877425;-60
2023/08/19 13:30:07;;;;;;;7.60;6.87;;;;;;;;;;739917;188;919569;-60
2023/08/19 13:32:33;;;;;;;8.00;7.00;;;;;;;;;;741048;187;635731;-60
2023/08/19 13:34:59;;;;;;;10.97;8.13;;;;;;;;;;753687;184;824244;-65
2023/08/19 13:37:25;;;;;;;9.53;8.20;;;;;;;;;;751437;188;627734;-65
2023/08/19 13:39:51;;;;;;;9.83;6.60;;;;;;;;;;752890;183;638136;-66
2023/08/19 13:42:17;;;;;;;8.30;6.90;;;;;;;;;;751929;185;615248;-67
2023/08/19 13:44:42;;;;;;;7.50;6.80;;;;;;;;;;738212;190;896167;-60
2023/08/19 13:47:08;;;;;;;11.73;7.50;;;;;;;;;;732469;187;819911;-60
2023/08/19 13:49:34;;;;;;;8.60;7.30;;;;;;;;;;752880;186;918560;-66
2023/08/19 13:52:00;;;;;;;8.20;7.40;;;;;;;;;;757768;183;919150;-60
2023/08/19 13:54:26;;;;;;;8.07;7.37;;;;;;;;;;758162;183;917494;-65
2023/08/19 13:56:52;;;;;;;7.67;6.87;;;;;;;;;;754965;185;917617;-60
2023/08/19 13:59:17;;;;;;;9.80;6.90;;;;;;;;;;753973;184;921312;-65
2023/08/19 14:01:43;;;;;;;9.80;6.93;;;;;;;;;;738988;189;817435;-60
2023/08/19 14:04:09;;;;;;;9.60;6.80;;;;;;;;;;741611;185;918993;-60
2023/08/19 14:06:35;;;;;;;10.23;7.17;;;;;;;;;;754821;185;913092;-66